createdAt,value
2018-11-28T00:04:25.105Z,52.8
2018-11-28T00:14:43.254Z,52.7
2018-11-28T00:25:01.501Z,53.2
2018-11-28T00:30:10.493Z,53.5
2018-11-28T00:35:19.635Z,54.2
2018-11-28T00:45:37.978Z,54.1
2018-11-28T00:55:56.257Z,54.1
2018-11-28T01:11:23.672Z,54.8
2018-11-28T01:16:32.839Z,54.9
2018-11-28T01:26:51.264Z,54.7
2018-11-28T01:42:18.715Z,55
2018-11-28T01:52:37.139Z,55.1
2018-11-28T01:57:46.250Z,55.6
2018-11-28T02:08:04.608Z,56.6
2018-11-28T02:13:13.857Z,55.7
2018-11-28T02:18:23.023Z,55.6
2018-11-28T02:23:32.186Z,55.5
2018-11-28T02:28:41.304Z,56
2018-11-28T02:33:50.481Z,56.5
2018-11-28T02:38:59.660Z,56.4
2018-11-28T02:44:08.914Z,56.2
2018-11-28T02:59:36.391Z,57.5
2018-11-28T03:04:45.599Z,58.2
2018-11-28T03:09:54.870Z,57.4
2018-11-28T03:40:49.998Z,57.6
2018-11-28T03:45:59.123Z,57.2
2018-11-28T04:01:26.676Z,58
2018-11-28T04:16:54.113Z,59.2
2018-11-28T04:22:03.205Z,59.4
2018-11-28T04:42:39.701Z,59.4
2018-11-28T04:47:48.795Z,59.4
2018-11-28T04:52:57.859Z,59.1
2018-11-28T05:23:52.318Z,57.8
2018-11-28T05:54:46.283Z,56.9
2018-11-28T05:59:55.275Z,56.7
2018-11-28T06:05:04.261Z,57.1
2018-11-28T06:10:13.290Z,56.1
2018-11-28T06:15:22.285Z,56.4
2018-11-28T06:25:40.258Z,56
2018-11-28T06:30:49.138Z,56
2018-11-28T06:35:58.046Z,55.6
2018-11-28T06:51:24.917Z,55.1
2018-11-28T06:56:33.823Z,54.7
2018-11-28T07:01:42.640Z,55.3
2018-11-28T07:06:51.640Z,55.4
2018-11-28T07:22:18.280Z,55.1
2018-11-28T07:42:53.824Z,54.8
2018-11-28T07:58:20.890Z,54.8
2018-11-28T08:08:37.957Z,54.5
2018-11-28T08:18:55.493Z,54.4
2018-11-28T08:49:48.237Z,53.5
2018-11-28T08:54:57.039Z,53.6
2018-11-28T09:00:05.613Z,54.2
2018-11-28T09:05:14.342Z,53.7
2018-11-28T09:20:40.516Z,53.7
2018-11-28T09:30:57.958Z,52.3
2018-11-28T09:41:15.263Z,52.2
2018-11-28T09:46:23.900Z,52.1
2018-11-28T09:51:32.454Z,50.8
2018-11-28T09:56:41.035Z,50.8
2018-11-28T10:01:49.971Z,51.9
2018-11-28T10:17:15.295Z,50
2018-11-28T10:22:23.820Z,50.6
2018-11-28T10:32:40.806Z,50.5
2018-11-28T10:37:49.356Z,48.8
2018-11-28T11:03:31.544Z,49.1
2018-11-28T11:08:39.975Z,48.3
2018-11-28T11:13:48.427Z,48.6
2018-11-28T11:34:21.891Z,48.3
2018-11-28T11:44:38.689Z,47.8
2018-11-28T12:15:28.636Z,47.5
2018-11-28T12:20:36.949Z,47.1
2018-11-28T12:25:45.268Z,46.3
2018-11-28T12:30:53.549Z,47.7
2018-11-28T12:36:01.944Z,47.3
2018-11-28T12:46:18.470Z,46.9
2018-11-28T12:56:35.120Z,46.8
2018-11-28T13:06:51.605Z,46
2018-11-28T13:12:00.013Z,46.6
2018-11-28T13:17:08.277Z,46.2
2018-11-28T13:27:24.819Z,45.9
2018-11-28T13:32:33.103Z,46
2018-11-28T13:42:49.665Z,45.1
2018-11-28T13:53:06.173Z,45.5
2018-11-28T13:58:14.437Z,44.8
2018-11-28T14:18:47.486Z,44.6
2018-11-28T14:23:55.756Z,44
2018-11-28T14:29:03.994Z,44.5
2018-11-28T14:34:12.240Z,44.2
2018-11-28T14:39:20.462Z,44.5
2018-11-28T14:54:45.281Z,44.2
2018-11-28T14:59:53.547Z,43.9
2018-11-28T15:30:43.199Z,43.2
2018-11-28T15:40:59.938Z,43.3
2018-11-28T15:46:08.247Z,43
2018-11-28T15:56:24.813Z,43.3
2018-11-28T16:16:58.112Z,43.2
2018-11-28T16:22:06.461Z,43.4
2018-11-28T16:32:23.194Z,43.8
2018-11-28T16:37:31.461Z,44.4
2018-11-28T16:42:39.912Z,44.2
2018-11-28T17:13:30.081Z,44.5
2018-11-28T17:23:47.554Z,45.5
2018-11-28T17:34:03.578Z,46
2018-11-28T17:39:11.994Z,45.5
2018-11-28T17:44:20.382Z,47.4
2018-11-28T17:54:37.334Z,50.8
2018-11-28T18:04:54.119Z,52.1
2018-11-28T18:15:11.117Z,54
2018-11-28T18:25:27.974Z,55.4
2018-11-28T18:35:44.919Z,56
2018-11-28T18:56:18.800Z,56.1
2018-11-28T19:01:27.297Z,56.7
2018-11-28T19:06:35.799Z,56.8
2018-11-28T19:22:01.277Z,57
2018-11-28T19:27:09.761Z,57
2018-11-28T19:47:43.833Z,58.4
2018-11-28T19:58:00.934Z,58.4
2018-11-28T20:08:17.928Z,58.1
2018-11-28T20:18:35.023Z,58.3
2018-11-28T20:34:00.776Z,58.4
2018-11-28T20:44:17.791Z,58.3
2018-11-28T20:59:43.433Z,58.6
2018-11-28T21:10:00.637Z,58.5
2018-11-28T21:20:17.811Z,59.4
2018-11-28T21:25:26.718Z,59.6
2018-11-28T21:30:34.824Z,59.6
2018-11-28T21:40:51.894Z,60
2018-11-28T21:46:00.526Z,60.5
2018-11-28T21:51:09.077Z,60.4
2018-11-28T22:01:26.093Z,60.1
2018-11-28T22:06:34.634Z,60.8
2018-11-28T22:22:00.430Z,60.9
2018-11-28T22:32:17.416Z,61.6
2018-11-28T22:42:34.518Z,61.9
2018-11-28T22:47:43.072Z,62.1
2018-11-28T22:52:51.745Z,61.8
2018-11-28T23:03:08.783Z,62.1
2018-11-28T23:08:17.282Z,62
2018-11-28T23:13:25.854Z,61.6
2018-11-28T23:23:42.867Z,61.6
2018-11-28T23:28:51.386Z,61.8
2018-11-28T23:33:59.896Z,62
2018-11-28T23:44:16.956Z,61.7
